Yalesville, Connecticut
Current Conditions -  °F | °C
As of 7:53 AM on Friday 24 Oct 2014 (Local Time) from KMMK Reporting Station
Moderate Rain Moderate Rain  
Wind Chill: 44°   Ceiling: 7500
Heat Index: 48°   Visibility: 5mi
Dew Point: 44°   Wind: 8mph
Humidity: 86%   Direction: 330°NNW
Pressure: 29.77"   Gusts: NA
Location:  41.4596°N, 72.818°W
Report Text: KMMK 241153Z AUTO 33007KT 5SM RA BR OVC075 09/07 A2977 RMK AO2 SLP080 P0004 60004 70004 T00890067 10100 20089 51015 TSNO
Loading
Personal Weather Stations






























Interactive Weather Map
Tropical Storm Tracking
New forecast layout! Learn more

10-Day Weather Forecast

Advertisements
Track Severe Weather on mobile